Time;durP1;ratioP1;P1;durP2;ratioP2;P2;SDS_P1;SDS_P2;PMS_P1;PMS_P2;Temp;Humidity;BMP_temperature;BMP_pressure;BME280_temperature;BME280_humidity;BME280_pressure;Samples;Min_cycle;Max_cycle;Signal;HPM_P1;HPM_P2
2023/05/12 00:01:28;;;;;;;;;;;14.60;99.90;;;;;;5077105;28;20490;-60
2023/05/12 00:03:54;;;;;;;;;;;14.60;99.90;;;;;;5076885;28;19982;-61
2023/05/12 00:06:19;;;;;;;;;;;14.60;99.90;;;;;;5076939;28;19997;-60
2023/05/12 00:08:45;;;;;;;;;;;14.60;99.90;;;;;;5077101;28;19981;-60
2023/05/12 00:11:10;;;;;;;;;;;14.60;99.90;;;;;;5076924;28;20386;-60
2023/05/12 00:13:36;;;;;;;;;;;14.50;99.90;;;;;;5077156;28;20367;-61
2023/05/12 00:16:02;;;;;;;;;;;14.50;99.90;;;;;;5076967;28;19989;-61
2023/05/12 00:18:27;;;;;;;;;;;14.50;99.90;;;;;;5077106;28;19985;-61
2023/05/12 00:20:53;;;;;;;;;;;14.50;99.90;;;;;;5076446;28;20005;-60
2023/05/12 00:23:19;;;;;;;;;;;14.60;99.90;;;;;;5077015;28;20035;-60
2023/05/12 00:25:45;;;;;;;;;;;14.50;99.90;;;;;;5076717;28;20391;-60
2023/05/12 00:28:10;;;;;;;;;;;14.60;99.90;;;;;;5076554;28;20027;-60
2023/05/12 00:30:36;;;;;;;;;;;14.60;99.90;;;;;;5076936;28;19985;-59
2023/05/12 00:33:02;;;;;;;;;;;14.50;99.90;;;;;;5076694;28;19981;-60
2023/05/12 00:35:27;;;;;;;;;;;14.60;99.90;;;;;;5076256;28;20027;-61
2023/05/12 00:37:53;;;;;;;;;;;14.60;99.90;;;;;;5076336;28;20023;-60
2023/05/12 00:40:18;;;;;;;;;;;14.70;99.90;;;;;;5076470;28;20005;-60
2023/05/12 00:42:44;;;;;;;;;;;14.70;99.90;;;;;;5076656;28;19985;-60
2023/05/12 00:45:10;;;;;;;;;;;14.70;99.90;;;;;;5076367;28;20374;-61
2023/05/12 00:47:36;;;;;;;;;;;14.70;99.90;;;;;;5076294;28;20546;-61
2023/05/12 00:50:02;;;;;;;;;;;14.70;99.90;;;;;;5076015;28;20035;-60
2023/05/12 00:52:28;;;;;;;;;;;14.70;99.90;;;;;;5074895;28;19990;-60
2023/05/12 00:54:54;;;;;;;;;;;14.70;99.90;;;;;;5076196;28;20008;-61
2023/05/12 00:57:20;;;;;;;;;;;14.60;99.90;;;;;;5076136;28;19989;-60
2023/05/12 00:59:46;;;;;;;;;;;14.50;99.90;;;;;;5075950;28;19982;-60
2023/05/12 01:02:12;;;;;;;;;;;14.50;99.90;;;;;;5076050;28;19993;-61
2023/05/12 01:04:38;;;;;;;;;;;14.70;99.90;;;;;;5075784;28;20068;-59
2023/05/12 01:07:08;;;;;;;;;;;14.60;99.90;;;;;;5075787;28;19985;-61
2023/05/12 01:09:34;;;;;;;;;;;14.70;99.90;;;;;;5075945;28;20458;-60
2023/05/12 01:12:00;;;;;;;;;;;14.70;99.90;;;;;;5076122;28;20080;-61
2023/05/12 01:14:25;;;;;;;;;;;14.60;99.90;;;;;;5075723;28;20017;-60
2023/05/12 01:16:52;;;;;;;;;;;14.60;99.90;;;;;;5075900;28;19988;-61
2023/05/12 01:19:41;;;;;;;;;;;14.40;99.90;;;;;;5075510;28;19981;-61
2023/05/12 01:22:07;;;;;;;;;;;14.40;99.90;;;;;;5069949;28;20037;-60
2023/05/12 01:24:34;;;;;;;;;;;14.30;99.90;;;;;;5075634;28;20080;-61
2023/05/12 01:27:01;;;;;;;;;;;14.30;99.90;;;;;;5075512;28;19982;-60
2023/05/12 01:29:27;;;;;;;;;;;14.20;99.90;;;;;;5075470;28;20031;-61
2023/05/12 01:31:53;;;;;;;;;;;14.10;99.90;;;;;;5075293;28;19993;-60
2023/05/12 01:34:19;;;;;;;;;;;13.90;99.90;;;;;;5075439;28;19982;-61
2023/05/12 01:36:45;;;;;;;;;;;13.90;99.90;;;;;;5075160;28;20119;-61
2023/05/12 01:39:11;;;;;;;;;;;13.90;99.90;;;;;;5075622;28;19985;-61
2023/05/12 01:41:37;;;;;;;;;;;13.90;99.90;;;;;;5075245;28;20016;-60
2023/05/12 01:44:03;;;;;;;;;;;13.90;99.90;;;;;;5075435;28;19996;-60
2023/05/12 01:46:28;;;;;;;;;;;13.80;99.90;;;;;;5075034;28;19982;-60
2023/05/12 01:48:54;;;;;;;;;;;13.60;99.90;;;;;;5075181;28;19981;-60
2023/05/12 01:51:19;;;;;;;;;;;13.70;99.90;;;;;;5074948;28;19985;-60
2023/05/12 01:53:45;;;;;;;;;;;13.70;99.90;;;;;;5075176;28;20031;-60
2023/05/12 01:56:10;;;;;;;;;;;13.70;99.90;;;;;;5075278;28;19986;-60
2023/05/12 01:58:36;;;;;;;;;;;13.70;99.90;;;;;;5074899;28;20359;-60
2023/05/12 02:01:02;;;;;;;;;;;13.70;99.90;;;;;;5074920;28;20053;-60
2023/05/12 02:03:27;;;;;;;;;;;13.70;99.90;;;;;;5074892;28;19983;-60
2023/05/12 02:05:53;;;;;;;;;;;13.80;99.90;;;;;;5075025;28;20092;-61
2023/05/12 02:08:18;;;;;;;;;;;13.80;99.90;;;;;;5074996;28;19988;-61
2023/05/12 02:10:44;;;;;;;;;;;13.90;99.90;;;;;;5074726;28;20455;-60
2023/05/12 02:13:09;;;;;;;;;;;14.00;99.90;;;;;;5074715;28;19982;-60
2023/05/12 02:15:35;;;;;;;;;;;14.10;99.90;;;;;;5074348;28;19981;-60
2023/05/12 02:18:02;;;;;;;;;;;14.30;99.90;;;;;;5074601;28;20325;-60
2023/05/12 02:20:28;;;;;;;;;;;14.40;99.90;;;;;;5073973;28;20107;-60
2023/05/12 02:22:54;;;;;;;;;;;14.50;99.90;;;;;;5074947;28;19986;-60
2023/05/12 02:25:20;;;;;;;;;;;14.60;99.90;;;;;;5074521;28;20450;-60
2023/05/12 02:27:45;;;;;;;;;;;14.60;99.90;;;;;;5074409;28;19981;-60
2023/05/12 02:30:11;;;;;;;;;;;14.60;99.90;;;;;;5074098;28;19981;-60
2023/05/12 02:32:37;;;;;;;;;;;14.50;99.90;;;;;;5074405;28;19982;-60
2023/05/12 02:35:02;;;;;;;;;;;14.40;99.90;;;;;;5074253;28;19997;-60
2023/05/12 02:37:28;;;;;;;;;;;14.30;99.90;;;;;;5074251;28;20021;-59
2023/05/12 02:39:53;;;;;;;;;;;14.00;99.90;;;;;;5074309;28;20423;-60
2023/05/12 02:42:19;;;;;;;;;;;13.90;99.90;;;;;;5074213;28;20072;-60
2023/05/12 02:44:44;;;;;;;;;;;13.90;99.90;;;;;;5073925;28;19986;-61
2023/05/12 02:47:10;;;;;;;;;;;13.90;99.90;;;;;;5074006;28;19988;-61
2023/05/12 02:49:35;;;;;;;;;;;14.00;99.90;;;;;;5074148;28;20519;-61
2023/05/12 02:52:01;;;;;;;;;;;14.10;99.90;;;;;;5074077;28;20028;-60
2023/05/12 02:54:27;;;;;;;;;;;14.20;99.90;;;;;;5073856;28;19982;-61
2023/05/12 02:56:53;;;;;;;;;;;14.20;99.90;;;;;;5074058;28;19985;-60
2023/05/12 02:59:18;;;;;;;;;;;14.30;99.90;;;;;;5073730;28;20444;-60
2023/05/12 03:01:44;;;;;;;;;;;14.40;99.90;;;;;;5073703;28;20005;-60
2023/05/12 03:04:10;;;;;;;;;;;14.50;99.90;;;;;;5073777;28;19989;-60
2023/05/12 03:06:35;;;;;;;;;;;14.50;99.90;;;;;;5073946;28;20001;-60
2023/05/12 03:09:01;;;;;;;;;;;14.50;99.90;;;;;;5074065;28;20000;-60
2023/05/12 03:11:26;;;;;;;;;;;14.50;99.90;;;;;;5073674;28;19985;-60
2023/05/12 03:13:52;;;;;;;;;;;14.60;99.90;;;;;;5072352;28;19989;-60
2023/05/12 03:16:17;;;;;;;;;;;14.50;99.90;;;;;;5073767;28;19981;-62
2023/05/12 03:18:43;;;;;;;;;;;14.50;99.90;;;;;;5073613;28;19982;-62
2023/05/12 03:21:08;;;;;;;;;;;14.50;99.90;;;;;;5073591;28;20488;-63
2023/05/12 03:23:35;;;;;;;;;;;14.50;99.90;;;;;;5073704;28;19981;-62
2023/05/12 03:26:01;;;;;;;;;;;14.50;99.90;;;;;;5073481;28;20450;-61
2023/05/12 03:28:26;;;;;;;;;;;14.50;99.90;;;;;;5073502;28;19982;-62
2023/05/12 03:30:52;;;;;;;;;;;14.50;99.90;;;;;;5072345;28;19985;-62
2023/05/12 03:33:18;;;;;;;;;;;14.40;99.90;;;;;;5077682;28;20035;-62
2023/05/12 03:35:43;;;;;;;;;;;14.50;99.90;;;;;;5077689;28;19985;-63
2023/05/12 03:38:09;;;;;;;;;;;14.40;99.90;;;;;;5077552;28;20021;-62
2023/05/12 03:40:35;;;;;;;;;;;14.40;99.90;;;;;;5077532;28;20086;-63
2023/05/12 03:43:01;;;;;;;;;;;14.40;99.90;;;;;;5077590;28;20453;-62
2023/05/12 03:45:26;;;;;;;;;;;14.30;99.90;;;;;;5077637;28;20020;-62
2023/05/12 03:47:52;;;;;;;;;;;14.40;99.90;;;;;;5077558;28;20097;-62
2023/05/12 03:50:17;;;;;;;;;;;14.30;99.90;;;;;;5077224;28;20386;-62
2023/05/12 03:52:43;;;;;;;;;;;14.20;99.90;;;;;;5077481;28;20031;-61
2023/05/12 03:55:09;;;;;;;;;;;14.20;99.90;;;;;;5077274;28;20068;-61
2023/05/12 03:57:35;;;;;;;;;;;14.10;99.90;;;;;;5076966;28;19982;-61
2023/05/12 04:00:01;;;;;;;;;;;14.10;99.90;;;;;;5077111;28;19992;-60
2023/05/12 04:02:27;;;;;;;;;;;14.10;99.90;;;;;;5077496;28;19986;-61
2023/05/12 04:04:53;;;;;;;;;;;13.90;99.90;;;;;;5076985;28;19997;-61
2023/05/12 04:07:18;;;;;;;;;;;13.90;99.90;;;;;;5077050;28;20043;-60
2023/05/12 04:09:44;;;;;;;;;;;13.80;99.90;;;;;;5077080;28;20031;-61
2023/05/12 04:12:09;;;;;;;;;;;13.80;99.90;;;;;;5076839;28;19982;-60
2023/05/12 04:14:35;;;;;;;;;;;13.80;99.90;;;;;;5076887;28;20502;-61
2023/05/12 04:17:00;;;;;;;;;;;13.80;99.90;;;;;;5077151;28;20037;-60
2023/05/12 04:19:26;;;;;;;;;;;13.90;99.90;;;;;;5076863;28;19981;-60
2023/05/12 04:21:52;;;;;;;;;;;13.90;99.90;;;;;;5076801;28;20009;-60
2023/05/12 04:24:17;;;;;;;;;;;13.90;99.90;;;;;;5076878;28;20051;-60
2023/05/12 04:26:43;;;;;;;;;;;13.90;99.90;;;;;;5076477;28;20011;-61
2023/05/12 04:29:08;;;;;;;;;;;13.80;99.90;;;;;;5076631;28;20436;-59
2023/05/12 04:31:34;;;;;;;;;;;13.80;99.90;;;;;;5076508;28;20386;-60
2023/05/12 04:34:00;;;;;;;;;;;13.80;99.90;;;;;;5076686;28;19982;-60
2023/05/12 04:36:25;;;;;;;;;;;13.80;99.90;;;;;;5076491;28;20035;-60
2023/05/12 04:38:51;;;;;;;;;;;13.80;99.90;;;;;;5076260;28;20017;-60
2023/05/12 04:41:16;;;;;;;;;;;13.80;99.90;;;;;;5076159;28;20005;-60
2023/05/12 04:43:42;;;;;;;;;;;13.90;99.90;;;;;;5076253;28;19986;-59
2023/05/12 04:46:07;;;;;;;;;;;14.00;99.90;;;;;;5076583;28;19986;-60
2023/05/12 04:48:33;;;;;;;;;;;14.00;99.90;;;;;;5076616;28;20447;-61
2023/05/12 04:50:59;;;;;;;;;;;14.00;99.90;;;;;;5076331;28;20446;-60
2023/05/12 04:53:24;;;;;;;;;;;14.00;99.90;;;;;;5076374;28;19994;-60
2023/05/12 04:55:50;;;;;;;;;;;13.90;99.90;;;;;;5076026;28;20356;-60
2023/05/12 04:58:15;;;;;;;;;;;14.00;99.90;;;;;;5076072;28;19985;-60
2023/05/12 05:00:41;;;;;;;;;;;14.00;99.90;;;;;;5075725;28;20005;-61
2023/05/12 05:03:07;;;;;;;;;;;14.10;99.90;;;;;;5075797;28;19985;-60
2023/05/12 05:05:32;;;;;;;;;;;14.10;99.90;;;;;;5075818;28;20013;-60
2023/05/12 05:07:58;;;;;;;;;;;14.10;99.90;;;;;;5074598;28;20021;-59
2023/05/12 05:10:24;;;;;;;;;;;14.20;99.90;;;;;;5075810;28;19996;-60
2023/05/12 05:12:49;;;;;;;;;;;14.20;99.90;;;;;;5075800;28;20052;-60
2023/05/12 05:15:15;;;;;;;;;;;14.30;99.90;;;;;;5075692;28;20386;-61
2023/05/12 05:17:42;;;;;;;;;;;14.40;99.90;;;;;;5075655;28;20393;-61
2023/05/12 05:20:07;;;;;;;;;;;14.50;99.90;;;;;;5075774;28;20056;-59
2023/05/12 05:22:33;;;;;;;;;;;14.50;99.90;;;;;;5075642;28;20040;-60
2023/05/12 05:24:59;;;;;;;;;;;14.50;99.90;;;;;;5075207;28;20030;-60
2023/05/12 05:27:24;;;;;;;;;;;14.60;99.90;;;;;;5075519;28;20447;-63
2023/05/12 05:29:50;;;;;;;;;;;14.60;99.90;;;;;;5089684;28;20401;-60
2023/05/12 05:32:16;;;;;;;;;;;14.60;99.90;;;;;;5094851;28;19986;-59
2023/05/12 05:34:41;;;;;;;;;;;14.60;99.90;;;;;;5094945;28;20471;-60
2023/05/12 05:37:07;;;;;;;;;;;14.60;99.90;;;;;;5094715;28;20058;-60
2023/05/12 05:39:33;;;;;;;;;;;14.70;99.90;;;;;;5094814;28;20009;-60
2023/05/12 05:41:58;;;;;;;;;;;14.60;99.90;;;;;;5094814;28;20387;-60
2023/05/12 05:44:24;;;;;;;;;;;14.60;99.90;;;;;;5095248;28;19988;-60
2023/05/12 05:46:50;;;;;;;;;;;14.70;99.90;;;;;;5095365;28;20030;-59
2023/05/12 05:49:15;;;;;;;;;;;14.70;99.90;;;;;;5095139;28;20071;-60
2023/05/12 05:51:41;;;;;;;;;;;14.80;99.90;;;;;;5095092;28;20063;-59
2023/05/12 05:54:06;;;;;;;;;;;14.80;99.90;;;;;;5093953;28;20039;-60
2023/05/12 05:56:34;;;;;;;;;;;14.90;99.90;;;;;;5095065;28;19992;-60
2023/05/12 05:59:04;;;;;;;;;;;15.00;99.90;;;;;;5093070;28;20067;-60
2023/05/12 06:01:30;;;;;;;;;;;15.00;99.90;;;;;;5094880;28;20054;-60
2023/05/12 06:03:55;;;;;;;;;;;15.10;99.90;;;;;;5094948;28;20419;-60
2023/05/12 06:06:21;;;;;;;;;;;15.20;99.90;;;;;;5095029;28;20040;-60
2023/05/12 06:08:46;;;;;;;;;;;15.20;99.90;;;;;;5094477;28;20431;-60
2023/05/12 06:11:12;;;;;;;;;;;15.30;99.90;;;;;;5094511;28;19985;-60
2023/05/12 06:13:37;;;;;;;;;;;15.30;99.90;;;;;;5086825;28;19989;-60
2023/05/12 06:16:04;;;;;;;;;;;15.30;99.90;;;;;;5093194;28;19985;-60
2023/05/12 06:18:32;;;;;;;;;;;15.50;99.90;;;;;;5092802;28;19985;-59
2023/05/12 06:20:58;;;;;;;;;;;15.60;99.90;;;;;;5094621;28;20015;-59
2023/05/12 06:23:23;;;;;;;;;;;15.60;99.90;;;;;;5094312;28;19992;-61
2023/05/12 06:25:49;;;;;;;;;;;15.60;99.90;;;;;;5096331;28;20068;-59
2023/05/12 06:28:15;;;;;;;;;;;15.60;99.90;;;;;;5114718;28;20006;-59
2023/05/12 06:30:40;;;;;;;;;;;15.50;99.90;;;;;;5103727;28;19985;-60
2023/05/12 06:33:06;;;;;;;;;;;15.40;99.90;;;;;;5094639;28;19993;-59
2023/05/12 06:35:32;;;;;;;;;;;15.40;99.90;;;;;;5093692;28;20327;-62
2023/05/12 06:37:57;;;;;;;;;;;15.40;99.90;;;;;;5093350;28;20047;-60
2023/05/12 06:40:23;;;;;;;;;;;15.50;99.90;;;;;;5093982;28;20015;-60
2023/05/12 06:42:50;;;;;;;;;;;15.50;99.90;;;;;;5093753;28;20415;-60
2023/05/12 06:45:16;;;;;;;;;;;15.50;99.90;;;;;;5094135;28;20003;-61
2023/05/12 06:47:42;;;;;;;;;;;15.60;99.90;;;;;;5093642;28;19991;-61
2023/05/12 06:50:08;;;;;;;;;;;15.60;99.90;;;;;;5093589;28;19985;-60
2023/05/12 06:52:34;;;;;;;;;;;15.50;99.90;;;;;;5094166;28;19986;-61
2023/05/12 06:54:59;;;;;;;;;;;15.60;99.90;;;;;;5093531;28;19981;-62
2023/05/12 06:57:25;;;;;;;;;;;15.70;99.90;;;;;;5093487;28;19985;-61
2023/05/12 06:59:51;;;;;;;;;;;15.60;99.90;;;;;;5083727;28;19985;-60
2023/05/12 07:02:16;;;;;;;;;;;15.70;99.90;;;;;;5088331;28;20020;-61
2023/05/12 07:04:42;;;;;;;;;;;15.80;99.90;;;;;;5091513;28;20072;-61
2023/05/12 07:07:08;;;;;;;;;;;16.00;99.90;;;;;;5087121;28;19985;-62
2023/05/12 07:09:33;;;;;;;;;;;16.50;99.90;;;;;;5084541;28;19993;-60
2023/05/12 07:11:59;;;;;;;;;;;17.50;99.90;;;;;;5086389;28;20418;-61
2023/05/12 07:14:25;;;;;;;;;;;18.90;99.90;;;;;;5089946;28;20367;-63
2023/05/12 07:16:51;;;;;;;;;;;20.50;99.90;;;;;;5087762;28;20466;-63
2023/05/12 07:19:17;;;;;;;;;;;23.00;99.90;;;;;;5090108;28;19985;-62
2023/05/12 07:21:43;;;;;;;;;;;25.00;76.60;;;;;;5087209;28;20106;-61
2023/05/12 07:24:09;;;;;;;;;;;26.60;62.20;;;;;;5088936;28;19985;-63
2023/05/12 07:26:35;;;;;;;;;;;27.70;59.20;;;;;;5087629;28;19993;-62
2023/05/12 07:29:02;;;;;;;;;;;29.10;59.60;;;;;;5088074;28;19985;-60
2023/05/12 07:31:28;;;;;;;;;;;29.80;52.20;;;;;;5087956;28;19989;-61
2023/05/12 07:33:53;;;;;;;;;;;30.20;52.40;;;;;;5091253;28;20320;-62
2023/05/12 07:36:19;;;;;;;;;;;30.40;52.50;;;;;;5088391;28;20478;-63
2023/05/12 07:38:45;;;;;;;;;;;30.80;47.80;;;;;;5082610;28;20444;-63
2023/05/12 07:41:11;;;;;;;;;;;30.70;50.70;;;;;;5088248;28;20005;-63
2023/05/12 07:43:36;;;;;;;;;;;31.20;50.80;;;;;;5083140;28;19992;-64
2023/05/12 07:46:02;;;;;;;;;;;31.10;48.50;;;;;;5083199;28;19985;-62
2023/05/12 07:48:27;;;;;;;;;;;31.70;47.40;;;;;;5084456;28;19989;-60
2023/05/12 07:50:53;;;;;;;;;;;32.50;48.20;;;;;;5082289;28;20443;-64
2023/05/12 07:53:22;;;;;;;;;;;32.90;46.80;;;;;;5079617;28;20443;-65
2023/05/12 07:55:48;;;;;;;;;;;32.70;43.10;;;;;;5078477;28;19992;-61
2023/05/12 07:58:13;;;;;;;;;;;32.10;44.00;;;;;;5082712;28;19989;-62
2023/05/12 08:00:48;;;;;;;;;;;32.10;44.40;;;;;;5069199;28;20009;-63
2023/05/12 08:03:15;;;;;;;;;;;32.00;43.60;;;;;;5074219;28;19991;-62
2023/05/12 08:05:41;;;;;;;;;;;32.00;44.20;;;;;;5078578;28;19989;-61
2023/05/12 08:08:11;;;;;;;;;;;32.70;44.60;;;;;;5092553;28;20039;-62
2023/05/12 08:10:49;;;;;;;;;;;33.40;44.50;;;;;;5085295;28;20401;-62
2023/05/12 08:13:16;;;;;;;;;;;33.40;41.90;;;;;;5084607;28;20007;-62
2023/05/12 08:15:45;;;;;;;;;;;33.90;41.70;;;;;;5085217;28;20603;-63
2023/05/12 08:18:14;;;;;;;;;;;33.60;42.50;;;;;;5086455;28;20030;-63
2023/05/12 08:20:43;;;;;;;;;;;33.30;40.40;;;;;;5092529;28;20032;-63
2023/05/12 08:23:09;;;;;;;;;;;33.50;41.30;;;;;;5086375;28;19986;-61
2023/05/12 08:25:47;;;;;;;;;;;33.30;42.30;;;;;;5083549;28;19997;-61
2023/05/12 08:28:13;;;;;;;;;;;33.50;42.70;;;;;;5088163;28;20158;-62
2023/05/12 08:30:43;;;;;;;;;;;33.20;41.30;;;;;;5096071;28;20101;-62
2023/05/12 08:33:09;;;;;;;;;;;33.20;39.20;;;;;;5085492;28;19993;-64
2023/05/12 08:35:43;;;;;;;;;;;32.00;44.00;;;;;;5093848;28;20482;-63
2023/05/12 08:38:09;;;;;;;;;;;32.20;42.50;;;;;;5090188;28;20466;-63
2023/05/12 08:40:59;;;;;;;;;;;31.90;44.90;;;;;;5075079;28;20012;-63
2023/05/12 08:43:25;;;;;;;;;;;31.60;43.60;;;;;;5067278;28;20355;-62
2023/05/12 08:45:57;;;;;;;;;;;30.40;43.30;;;;;;5069713;28;19982;-63
2023/05/12 08:48:31;;;;;;;;;;;29.20;44.30;;;;;;5069704;28;19985;-62
2023/05/12 08:50:59;;;;;;;;;;;30.30;45.50;;;;;;5076990;28;19981;-62
2023/05/12 08:53:26;;;;;;;;;;;30.30;46.80;;;;;;5087125;28;19989;-64
2023/05/12 08:55:52;;;;;;;;;;;28.90;44.60;;;;;;5080617;28;19990;-63
2023/05/12 08:58:17;;;;;;;;;;;27.90;45.60;;;;;;5074846;28;19986;-63
2023/05/12 09:00:43;;;;;;;;;;;27.30;47.40;;;;;;5080208;28;20013;-62
2023/05/12 09:03:11;;;;;;;;;;;27.10;49.00;;;;;;5091854;28;20034;-63
2023/05/12 09:05:38;;;;;;;;;;;26.80;48.40;;;;;;5088676;28;19997;-63
2023/05/12 09:08:04;;;;;;;;;;;26.20;48.00;;;;;;5074280;28;20411;-64
2023/05/12 09:10:30;;;;;;;;;;;27.20;49.20;;;;;;5086570;28;19989;-63
2023/05/12 09:13:01;;;;;;;;;;;26.90;49.50;;;;;;5089981;28;20024;-62
2023/05/12 09:15:29;;;;;;;;;;;27.00;50.00;;;;;;5094387;28;19981;-64
2023/05/12 09:17:55;;;;;;;;;;;26.80;50.00;;;;;;5093266;28;19992;-62
2023/05/12 09:20:28;;;;;;;;;;;27.90;49.90;;;;;;5083421;28;20375;-63
2023/05/12 09:22:56;;;;;;;;;;;28.70;46.90;;;;;;5074732;28;19986;-64
2023/05/12 09:25:28;;;;;;;;;;;29.30;47.60;;;;;;5076248;28;19989;-62
2023/05/12 09:27:55;;;;;;;;;;;30.00;49.00;;;;;;5073300;28;19992;-63
2023/05/12 09:30:28;;;;;;;;;;;30.60;45.30;;;;;;5089458;28;19989;-63
2023/05/12 09:33:03;;;;;;;;;;;31.10;48.00;;;;;;5094645;28;20447;-63
2023/05/12 09:35:29;;;;;;;;;;;31.40;45.40;;;;;;5092653;28;20520;-64
2023/05/12 09:37:55;;;;;;;;;;;31.10;44.90;;;;;;5092210;28;20017;-65
2023/05/12 09:40:20;;;;;;;;;;;30.60;44.70;;;;;;5075423;28;20009;-61
2023/05/12 09:42:46;;;;;;;;;;;30.10;46.50;;;;;;5090868;28;19989;-60
2023/05/12 09:45:50;;;;;;;;;;;30.60;47.70;;;;;;5093308;28;20435;-62
2023/05/12 09:48:18;;;;;;;;;;;29.90;45.70;;;;;;5088842;28;20004;-61
2023/05/12 09:50:52;;;;;;;;;;;29.20;44.50;;;;;;5092800;28;19985;-62
2023/05/12 09:53:19;;;;;;;;;;;28.60;46.40;;;;;;5093461;28;20079;-62
2023/05/12 09:55:49;;;;;;;;;;;28.10;47.30;;;;;;5081913;28;20339;-65
2023/05/12 09:58:16;;;;;;;;;;;27.30;47.40;;;;;;5080914;28;19990;-62
2023/05/12 10:00:46;;;;;;;;;;;26.90;48.80;;;;;;5070929;28;20098;-64
2023/05/12 10:03:16;;;;;;;;;;;26.70;48.80;;;;;;5075493;28;19993;-63
2023/05/12 10:06:08;;;;;;;;;;;26.70;50.70;;;;;;5073140;28;20439;-64
2023/05/12 10:08:36;;;;;;;;;;;26.60;49.10;;;;;;5079818;28;20040;-63
2023/05/12 10:11:03;;;;;;;;;;;26.40;51.00;;;;;;5081142;28;20102;-66
2023/05/12 10:13:29;;;;;;;;;;;26.10;50.60;;;;;;5073855;28;20076;-60
2023/05/12 10:15:56;;;;;;;;;;;25.90;51.40;;;;;;5073875;28;19992;-61
2023/05/12 10:18:22;;;;;;;;;;;25.70;51.60;;;;;;5076672;28;19988;-63
2023/05/12 10:20:49;;;;;;;;;;;25.40;51.40;;;;;;5092336;28;20013;-62
2023/05/12 10:23:17;;;;;;;;;;;25.10;52.50;;;;;;5081610;28;20030;-62
2023/05/12 10:25:43;;;;;;;;;;;24.90;52.80;;;;;;5091131;28;20083;-63
2023/05/12 10:28:09;;;;;;;;;;;24.60;53.90;;;;;;5082745;28;20300;-62
2023/05/12 10:30:47;;;;;;;;;;;24.40;53.60;;;;;;5087887;28;19993;-66
2023/05/12 10:33:14;;;;;;;;;;;24.20;55.60;;;;;;5092182;28;19985;-61
2023/05/12 10:35:57;;;;;;;;;;;23.80;57.70;;;;;;5087319;28;19985;-63
2023/05/12 10:38:24;;;;;;;;;;;23.20;80.40;;;;;;5066637;28;20074;-64
2023/05/12 10:40:50;;;;;;;;;;;22.50;99.90;;;;;;5069988;28;20383;-65
2023/05/12 10:43:23;;;;;;;;;;;21.50;99.90;;;;;;5069425;28;20004;-64
2023/05/12 10:46:05;;;;;;;;;;;20.10;99.90;;;;;;5068741;28;20072;-63
2023/05/12 10:48:30;;;;;;;;;;;19.50;99.90;;;;;;5068461;28;20054;-65
2023/05/12 10:50:56;;;;;;;;;;;19.20;99.90;;;;;;5086342;28;20032;-61
2023/05/12 10:53:31;;;;;;;;;;;18.90;99.90;;;;;;5088059;28;19981;-63
2023/05/12 10:56:01;;;;;;;;;;;18.60;99.90;;;;;;5073288;28;20079;-61
2023/05/12 10:58:27;;;;;;;;;;;18.30;99.90;;;;;;5070370;28;19993;-59
2023/05/12 11:00:53;;;;;;;;;;;18.50;99.90;;;;;;5073574;28;20019;-62
2023/05/12 11:03:22;;;;;;;;;;;18.80;99.90;;;;;;5083406;28;19985;-63
2023/05/12 11:05:57;;;;;;;;;;;18.90;99.90;;;;;;5089160;28;19989;-65
2023/05/12 11:08:23;;;;;;;;;;;18.90;99.90;;;;;;5081248;28;20044;-63
2023/05/12 11:10:49;;;;;;;;;;;18.90;99.90;;;;;;5079590;28;20027;-63
2023/05/12 11:13:16;;;;;;;;;;;19.00;99.90;;;;;;5090167;28;19992;-67
2023/05/12 11:15:43;;;;;;;;;;;19.20;99.90;;;;;;5089204;28;19989;-64
2023/05/12 11:18:08;;;;;;;;;;;19.40;99.90;;;;;;5087653;28;20100;-62
2023/05/12 11:20:53;;;;;;;;;;;19.90;99.90;;;;;;5076840;28;20182;-64
2023/05/12 11:23:24;;;;;;;;;;;20.60;99.90;;;;;;5074293;28;19997;-64
2023/05/12 11:25:49;;;;;;;;;;;21.70;99.90;;;;;;5070474;28;19987;-66
2023/05/12 11:28:15;;;;;;;;;;;22.10;99.90;;;;;;5072096;28;20107;-68
2023/05/12 11:30:53;;;;;;;;;;;22.70;99.90;;;;;;5074587;28;20444;-65
2023/05/12 11:33:20;;;;;;;;;;;23.50;99.90;;;;;;5083697;28;20423;-64
2023/05/12 11:35:45;;;;;;;;;;;24.10;99.90;;;;;;5089495;28;20434;-65
2023/05/12 11:38:16;;;;;;;;;;;24.60;99.90;;;;;;5079458;28;20025;-62
2023/05/12 11:40:41;;;;;;;;;;;24.80;99.90;;;;;;5086755;28;20090;-62
2023/05/12 11:43:10;;;;;;;;;;;25.20;99.90;;;;;;5087633;28;20439;-63
2023/05/12 11:45:36;;;;;;;;;;;25.60;99.90;;;;;;5083040;28;20031;-63
2023/05/12 11:48:10;;;;;;;;;;;26.20;96.60;;;;;;5090447;28;20024;-60
2023/05/12 11:50:36;;;;;;;;;;;26.90;90.40;;;;;;5084250;28;19985;-61
2023/05/12 11:53:02;;;;;;;;;;;27.00;65.20;;;;;;5089300;28;20276;-59
2023/05/12 11:55:27;;;;;;;;;;;26.50;67.70;;;;;;5089995;28;19997;-61
2023/05/12 11:58:01;;;;;;;;;;;25.90;66.00;;;;;;5094745;28;19993;-65
2023/05/12 12:00:28;;;;;;;;;;;25.50;70.60;;;;;;5084238;28;20005;-63
2023/05/12 12:03:03;;;;;;;;;;;25.00;64.90;;;;;;5080467;28;19994;-61
2023/05/12 12:05:29;;;;;;;;;;;24.60;66.50;;;;;;5088721;28;20091;-63
2023/05/12 12:08:02;;;;;;;;;;;23.90;79.20;;;;;;5085902;28;20083;-63
2023/05/12 12:10:28;;;;;;;;;;;23.30;82.50;;;;;;5073696;28;19988;-61
2023/05/12 12:12:53;;;;;;;;;;;22.70;97.60;;;;;;5072399;28;19982;-63
2023/05/12 12:15:19;;;;;;;;;;;22.20;99.90;;;;;;5075472;28;19988;-60
2023/05/12 12:17:44;;;;;;;;;;;21.90;99.90;;;;;;5074856;28;20027;-61
2023/05/12 12:20:10;;;;;;;;;;;21.70;99.90;;;;;;5074637;28;20352;-63
2023/05/12 12:22:36;;;;;;;;;;;21.60;99.90;;;;;;5075525;28;20311;-63
2023/05/12 12:25:01;;;;;;;;;;;21.60;99.90;;;;;;5071890;28;19986;-64
2023/05/12 12:27:27;;;;;;;;;;;21.50;93.30;;;;;;5071531;28;19981;-63
2023/05/12 12:29:53;;;;;;;;;;;21.20;95.20;;;;;;5071866;28;19985;-63
2023/05/12 12:32:18;;;;;;;;;;;21.20;96.70;;;;;;5072888;28;19985;-64
2023/05/12 12:34:45;;;;;;;;;;;21.10;92.40;;;;;;5072654;28;20339;-60
2023/05/12 12:37:10;;;;;;;;;;;21.20;91.00;;;;;;5073540;28;20022;-62
2023/05/12 12:39:36;;;;;;;;;;;21.20;83.00;;;;;;5074541;28;20043;-63
2023/05/12 12:42:02;;;;;;;;;;;21.00;84.80;;;;;;5075061;28;20394;-61
2023/05/12 12:44:27;;;;;;;;;;;21.00;84.10;;;;;;5075819;28;20406;-63
2023/05/12 12:46:53;;;;;;;;;;;21.10;90.60;;;;;;5076275;28;20040;-62
2023/05/12 12:49:19;;;;;;;;;;;21.20;83.30;;;;;;5076331;28;20003;-62
2023/05/12 12:51:44;;;;;;;;;;;21.40;75.60;;;;;;5075826;28;20070;-63
2023/05/12 12:54:10;;;;;;;;;;;21.50;79.50;;;;;;5074119;28;20444;-62
2023/05/12 12:56:35;;;;;;;;;;;21.40;69.40;;;;;;5075339;28;20470;-61
2023/05/12 12:59:01;;;;;;;;;;;21.50;74.70;;;;;;5075171;28;20127;-63
2023/05/12 13:01:27;;;;;;;;;;;21.50;69.00;;;;;;5076009;28;20009;-61
2023/05/12 13:03:53;;;;;;;;;;;21.50;74.50;;;;;;5075738;28;20043;-63
2023/05/12 13:06:18;;;;;;;;;;;21.50;70.90;;;;;;5076044;28;20017;-61
2023/05/12 13:08:44;;;;;;;;;;;21.50;73.90;;;;;;5075879;28;19997;-62
2023/05/12 13:11:09;;;;;;;;;;;21.80;76.30;;;;;;5075928;28;20501;-63
2023/05/12 13:13:36;;;;;;;;;;;22.20;71.70;;;;;;5075930;28;20386;-61
2023/05/12 13:16:01;;;;;;;;;;;22.60;71.20;;;;;;5075988;28;20344;-62
2023/05/12 13:18:27;;;;;;;;;;;23.00;67.30;;;;;;5075813;28;19981;-62
2023/05/12 13:20:53;;;;;;;;;;;23.40;68.40;;;;;;5075699;28;20013;-63
2023/05/12 13:23:19;;;;;;;;;;;23.70;65.00;;;;;;5075647;28;19985;-63
2023/05/12 13:25:45;;;;;;;;;;;24.10;62.50;;;;;;5075657;28;19985;-64
2023/05/12 13:28:11;;;;;;;;;;;24.00;59.20;;;;;;5075888;28;20419;-62
2023/05/12 13:30:36;;;;;;;;;;;23.80;60.50;;;;;;5075729;28;19982;-62
2023/05/12 13:33:02;;;;;;;;;;;23.70;60.70;;;;;;5075830;28;20416;-62
2023/05/12 13:35:28;;;;;;;;;;;23.40;58.90;;;;;;5075447;28;19985;-64
2023/05/12 13:37:55;;;;;;;;;;;23.40;60.40;;;;;;5075324;28;20501;-62
2023/05/12 13:40:21;;;;;;;;;;;23.40;61.10;;;;;;5075442;28;20455;-63
2023/05/12 13:42:46;;;;;;;;;;;23.20;59.80;;;;;;5075333;28;19982;-62
2023/05/12 13:45:12;;;;;;;;;;;23.10;59.10;;;;;;5075568;28;20487;-64
2023/05/12 13:47:37;;;;;;;;;;;22.90;58.80;;;;;;5075265;28;20135;-61
2023/05/12 13:50:03;;;;;;;;;;;22.80;61.40;;;;;;5075202;28;19985;-63
2023/05/12 13:52:29;;;;;;;;;;;22.80;59.20;;;;;;5075054;28;19992;-63
2023/05/12 13:54:55;;;;;;;;;;;22.90;60.10;;;;;;5075144;28;20064;-59
2023/05/12 13:57:20;;;;;;;;;;;22.90;58.90;;;;;;5075099;28;19989;-63
2023/05/12 13:59:46;;;;;;;;;;;22.70;59.70;;;;;;5075160;28;20029;-61
2023/05/12 14:02:12;;;;;;;;;;;22.60;57.30;;;;;;5074879;28;20005;-63
2023/05/12 14:04:38;;;;;;;;;;;22.50;57.50;;;;;;5074939;28;19988;-63
2023/05/12 14:07:04;;;;;;;;;;;22.70;58.10;;;;;;5074814;28;19985;-63
2023/05/12 14:09:30;;;;;;;;;;;22.70;55.90;;;;;;5074882;28;20046;-63
2023/05/12 14:11:57;;;;;;;;;;;22.50;56.60;;;;;;5074766;28;19985;-64
2023/05/12 14:14:23;;;;;;;;;;;22.20;57.00;;;;;;5074643;28;19992;-63